Time;durP1;ratioP1;P1;durP2;ratioP2;P2;SDS_P1;SDS_P2;PMS_P1;PMS_P2;Temp;Humidity;BMP_temperature;BMP_pressure;BME280_temperature;BME280_humidity;BME280_pressure;Samples;Min_cycle;Max_cycle;Signal;HPM_P1;HPM_P2
2022/03/02 06:45:56;;;;;;;19.60;10.13;;;;;;;;;;6136726;23;19917;-90
2022/03/02 06:48:26;;;;;;;20.23;11.35;;;;;;;;;;6103445;23;20018;-94
2022/03/02 06:50:54;;;;;;;19.10;10.90;;;;;;;;;;6098986;23;20006;-91
2022/03/02 06:53:36;;;;;;;19.15;12.35;;;;;;;;;;6080310;23;20002;-89
2022/03/02 06:56:07;;;;;;;20.80;13.13;;;;;;;;;;6082275;23;20003;-94
2022/03/02 06:58:53;;;;;;;22.63;13.18;;;;;;;;;;6077927;23;20010;-95
2022/03/02 07:01:26;;;;;;;17.85;10.73;;;;;;;;;;6102422;23;20075;-94
2022/03/02 07:03:55;;;;;;;19.92;11.45;;;;;;;;;;6103888;23;20005;-94
2022/03/02 10:38:08;;;;;;;15.07;10.57;;;;;;;;;;6200755;23;20009;-94
2022/03/02 10:40:36;;;;;;;18.00;12.50;;;;;;;;;;6106273;23;20353;-93
2022/03/02 10:43:09;;;;;;;15.95;11.35;;;;;;;;;;6089855;23;20046;-93
2022/03/02 10:45:48;;;;;;;14.23;11.48;;;;;;;;;;6073182;23;20069;-94
2022/03/02 10:48:41;;;;;;;17.35;11.57;;;;;;;;;;6097620;23;20013;-93
2022/03/02 10:51:10;;;;;;;16.88;11.70;;;;;;;;;;6072998;23;20030;-95
2022/03/02 10:53:40;;;;;;;17.43;11.60;;;;;;;;;;6074224;23;20053;-94
2022/03/02 10:56:08;;;;;;;18.80;11.95;;;;;;;;;;6075358;23;20006;-94
2022/03/02 10:58:34;;;;;;;13.40;10.60;;;;;;;;;;6075262;23;20010;-94
2022/03/02 11:01:01;;;;;;;16.05;10.73;;;;;;;;;;6075044;23;20055;-93
2022/03/02 11:03:29;;;;;;;16.15;11.32;;;;;;;;;;6074788;23;20002;-93
2022/03/02 11:06:00;;;;;;;16.92;11.23;;;;;;;;;;6077749;23;19990;-94
2022/03/02 11:08:26;;;;;;;19.52;12.68;;;;;;;;;;6075406;23;20006;-94
2022/03/02 11:10:53;;;;;;;16.55;11.80;;;;;;;;;;6075916;23;20138;-96
2022/03/02 11:13:23;;;;;;;16.17;11.48;;;;;;;;;;6076850;23;20414;-96
2022/03/02 11:15:53;;;;;;;16.33;11.02;;;;;;;;;;6076804;23;20014;-96
2022/03/02 11:18:38;;;;;;;16.30;11.30;;;;;;;;;;6147235;23;20009;-95
2022/03/02 11:21:10;;;;;;;14.40;12.35;;;;;;;;;;6162488;23;20076;-96
2022/03/02 11:23:50;;;;;;;15.77;11.85;;;;;;;;;;6162453;23;20002;-96
2022/03/02 11:26:24;;;;;;;14.77;10.90;;;;;;;;;;6165070;23;20096;-96
2022/03/02 11:28:55;;;;;;;15.43;10.55;;;;;;;;;;6168654;23;20012;-96
2022/03/02 11:31:31;;;;;;;14.85;11.57;;;;;;;;;;6159458;23;20081;-92
2022/03/02 11:34:21;;;;;;;17.40;11.40;;;;;;;;;;6158047;23;20009;-93
2022/03/02 11:36:49;;;;;;;16.15;11.13;;;;;;;;;;6157773;23;20014;-94
2022/03/02 11:39:17;;;;;;;18.95;12.23;;;;;;;;;;6158596;23;20065;-94
2022/03/02 11:41:46;;;;;;;19.63;11.93;;;;;;;;;;6158857;23;20008;-92
2022/03/02 11:44:32;;;;;;;15.13;11.40;;;;;;;;;;6158291;23;20015;-96
2022/03/02 11:47:07;;;;;;;16.27;11.48;;;;;;;;;;6163575;23;20383;-91
2022/03/02 11:49:40;;;;;;;16.08;11.95;;;;;;;;;;6162200;23;20453;-90
2022/03/02 11:52:09;;;;;;;15.60;11.95;;;;;;;;;;6158402;23;20013;-91
2022/03/02 11:54:46;;;;;;;16.77;12.82;;;;;;;;;;6157394;23;20012;-89
2022/03/02 11:57:13;;;;;;;18.30;12.23;;;;;;;;;;6157843;23;20009;-92
2022/03/02 11:59:39;;;;;;;18.27;12.30;;;;;;;;;;6157554;23;20374;-91
2022/03/02 12:02:18;;;;;;;16.95;11.70;;;;;;;;;;6160830;23;20005;-92
2022/03/02 12:05:30;;;;;;;14.38;11.38;;;;;;;;;;6159408;23;20013;-92
2022/03/02 12:08:13;;;;;;;17.73;11.77;;;;;;;;;;6047525;23;20007;-91
2022/03/02 12:10:41;;;;;;;17.17;12.38;;;;;;;;;;6159240;23;20013;-90
2022/03/02 12:13:07;;;;;;;14.43;11.75;;;;;;;;;;6159066;23;20069;-93
2022/03/02 12:15:48;;;;;;;20.05;12.82;;;;;;;;;;6159391;23;20009;-93
2022/03/02 12:18:15;;;;;;;19.30;12.13;;;;;;;;;;6161880;23;20110;-93
2022/03/02 12:20:52;;;;;;;18.83;12.63;;;;;;;;;;6161674;23;20010;-91
2022/03/02 12:23:22;;;;;;;18.48;11.32;;;;;;;;;;6162344;23;20101;-93
2022/03/02 12:25:48;;;;;;;19.60;12.50;;;;;;;;;;6164650;23;20025;-93
2022/03/02 12:28:15;;;;;;;18.17;12.27;;;;;;;;;;6166649;23;20017;-90
2022/03/02 12:30:42;;;;;;;18.67;13.02;;;;;;;;;;6167292;23;20005;-94
2022/03/02 12:33:08;;;;;;;17.08;12.88;;;;;;;;;;6168334;23;20005;-95
2022/03/02 12:35:35;;;;;;;18.73;12.73;;;;;;;;;;6167007;23;20005;-91
2022/03/02 12:38:07;;;;;;;19.65;12.82;;;;;;;;;;6170141;23;20032;-93
2022/03/02 12:40:39;;;;;;;22.90;13.93;;;;;;;;;;6174707;23;20033;-89
2022/03/02 12:43:16;;;;;;;18.27;12.95;;;;;;;;;;6153310;23;20013;-91
2022/03/02 12:45:48;;;;;;;19.45;12.60;;;;;;;;;;6177752;23;20033;-90
2022/03/02 12:48:20;;;;;;;21.05;14.05;;;;;;;;;;6174615;23;20012;-91
2022/03/02 18:10:59;;;;;;;27.40;17.23;;;;;;;;;;6164401;22;20029;-96
2022/03/02 18:16:17;;;;;;;29.08;17.70;;;;;;;;;;6148509;23;20026;-96
2022/03/02 18:18:55;;;;;;;26.88;16.40;;;;;;;;;;6144270;23;20025;-96
2022/03/02 18:24:02;;;;;;;29.92;18.17;;;;;;;;;;6161403;23;20025;-96
2022/03/02 18:26:31;;;;;;;30.90;20.10;;;;;;;;;;6146236;23;20017;-96
2022/03/02 18:28:59;;;;;;;21.42;15.13;;;;;;;;;;6166292;23;20013;-96
2022/03/02 18:52:29;;;;;;;25.17;16.88;;;;;;;;;;6111876;23;20021;-96
2022/03/02 18:54:56;;;;;;;26.85;16.90;;;;;;;;;;6161794;23;20239;-95
2022/03/02 18:57:23;;;;;;;32.90;19.13;;;;;;;;;;6142059;23;20016;-94
2022/03/02 18:59:48;;;;;;;28.30;17.27;;;;;;;;;;6133358;23;20014;-93
2022/03/02 19:02:16;;;;;;;27.05;15.40;;;;;;;;;;6107426;23;20006;-95
2022/03/02 19:04:42;;;;;;;23.60;15.57;;;;;;;;;;6105477;23;20045;-94
2022/03/02 19:07:09;;;;;;;24.83;15.30;;;;;;;;;;6137597;23;20006;-95
2022/03/02 19:09:40;;;;;;;24.38;14.70;;;;;;;;;;6145267;23;20025;-95
2022/03/02 19:12:08;;;;;;;24.92;16.33;;;;;;;;;;6124688;23;20029;-96
2022/03/02 19:14:34;;;;;;;25.13;16.75;;;;;;;;;;6151721;23;20077;-95
2022/03/02 19:17:03;;;;;;;23.40;15.95;;;;;;;;;;6153170;23;20009;-95
2022/03/02 21:03:30;;;;;;;24.65;16.63;;;;;;;;;;6211853;23;20028;-96
2022/03/02 21:05:56;;;;;;;33.22;22.30;;;;;;;;;;6182034;23;20013;-93
2022/03/02 21:08:30;;;;;;;28.65;17.80;;;;;;;;;;6183634;23;20009;-93
2022/03/02 21:11:02;;;;;;;23.30;14.68;;;;;;;;;;6183296;23;20020;-93
2022/03/02 21:13:29;;;;;;;26.90;16.13;;;;;;;;;;6182020;23;20008;-94
2022/03/02 21:15:57;;;;;;;24.25;16.00;;;;;;;;;;6183287;23;20036;-93
2022/03/02 21:18:23;;;;;;;25.50;15.85;;;;;;;;;;6183565;23;20068;-93
2022/03/02 21:20:56;;;;;;;24.15;15.48;;;;;;;;;;6149159;23;20006;-93
2022/03/02 21:23:26;;;;;;;23.35;16.38;;;;;;;;;;6205945;23;20020;-94
2022/03/02 21:25:54;;;;;;;25.00;16.15;;;;;;;;;;6182751;23;20015;-92
2022/03/02 21:28:26;;;;;;;28.75;15.93;;;;;;;;;;6183741;23;20005;-93
2022/03/02 21:30:55;;;;;;;22.38;14.35;;;;;;;;;;6184071;23;20001;-92
2022/03/02 21:33:20;;;;;;;22.00;14.90;;;;;;;;;;6184295;23;20049;-92
2022/03/02 21:35:46;;;;;;;27.38;14.98;;;;;;;;;;6183467;23;20005;-94
2022/03/02 21:38:14;;;;;;;24.25;15.45;;;;;;;;;;6208436;23;20048;-94
2022/03/02 21:40:40;;;;;;;25.42;15.70;;;;;;;;;;6183678;23;20001;-93
2022/03/02 21:43:07;;;;;;;24.63;16.35;;;;;;;;;;6183483;23;20000;-93
2022/03/02 21:45:33;;;;;;;27.25;16.70;;;;;;;;;;6184516;23;20013;-93
2022/03/02 21:48:00;;;;;;;28.63;17.92;;;;;;;;;;6181654;23;20056;-93
2022/03/02 21:50:32;;;;;;;32.00;18.00;;;;;;;;;;6183790;23;20009;-93
2022/03/02 21:53:02;;;;;;;28.80;16.83;;;;;;;;;;6208470;23;20009;-92
2022/03/02 21:55:28;;;;;;;25.83;16.33;;;;;;;;;;6181952;23;20016;-93
2022/03/02 21:57:55;;;;;;;29.95;16.88;;;;;;;;;;6182686;23;20005;-93
2022/03/02 22:00:24;;;;;;;27.02;16.67;;;;;;;;;;6182464;23;20009;-93
2022/03/02 22:02:53;;;;;;;29.17;16.45;;;;;;;;;;6208113;23;20044;-93
2022/03/02 22:05:23;;;;;;;26.35;16.75;;;;;;;;;;6209492;23;20012;-93
2022/03/02 22:07:48;;;;;;;28.15;16.38;;;;;;;;;;6210905;23;20005;-94
2022/03/02 22:10:15;;;;;;;29.83;17.52;;;;;;;;;;6206474;23;20029;-93
2022/03/02 22:12:54;;;;;;;31.52;18.13;;;;;;;;;;6209801;23;20021;-93
2022/03/02 22:15:20;;;;;;;29.83;17.60;;;;;;;;;;6209489;23;20012;-93
2022/03/02 22:17:54;;;;;;;28.50;18.48;;;;;;;;;;6186795;23;19989;-93
2022/03/02 22:20:21;;;;;;;31.25;17.65;;;;;;;;;;6180497;23;20041;-94
2022/03/02 22:22:48;;;;;;;31.80;19.08;;;;;;;;;;6210155;23;20044;-94
2022/03/02 22:25:14;;;;;;;27.10;18.33;;;;;;;;;;6178184;23;20049;-93
2022/03/02 22:27:41;;;;;;;29.60;18.13;;;;;;;;;;6176389;23;20005;-93
2022/03/02 22:30:09;;;;;;;32.88;19.58;;;;;;;;;;6171795;23;20017;-92
2022/03/02 22:32:36;;;;;;;32.63;21.25;;;;;;;;;;6172494;23;20065;-94
2022/03/02 22:35:03;;;;;;;38.20;21.92;;;;;;;;;;6173869;23;20001;-93
2022/03/02 22:37:29;;;;;;;37.00;22.38;;;;;;;;;;6175361;23;20013;-93
2022/03/02 22:39:54;;;;;;;35.83;20.13;;;;;;;;;;6172024;23;20020;-93
2022/03/02 22:42:21;;;;;;;35.40;21.92;;;;;;;;;;6172012;23;20010;-93
2022/03/02 22:45:01;;;;;;;38.10;22.48;;;;;;;;;;6143941;23;20005;-93
2022/03/02 22:47:27;;;;;;;35.15;21.75;;;;;;;;;;6160614;23;20029;-93
2022/03/02 22:49:53;;;;;;;39.03;24.00;;;;;;;;;;6135728;23;20421;-93
2022/03/02 22:52:19;;;;;;;32.90;21.60;;;;;;;;;;6136286;23;20328;-94
2022/03/02 22:54:46;;;;;;;38.42;22.58;;;;;;;;;;6136476;23;20009;-94
2022/03/02 22:57:12;;;;;;;38.92;23.20;;;;;;;;;;6161837;23;20002;-93
2022/03/02 22:59:38;;;;;;;34.63;22.38;;;;;;;;;;6136898;23;20016;-93
2022/03/02 23:02:12;;;;;;;35.35;20.58;;;;;;;;;;6136989;23;20076;-93
2022/03/02 23:15:50;;;;;;;33.63;19.92;;;;;;;;;;6177395;23;20102;-93
2022/03/02 23:18:22;;;;;;;33.00;19.53;;;;;;;;;;6149922;23;20013;-93
2022/03/02 23:20:59;;;;;;;32.42;19.60;;;;;;;;;;6153516;23;20010;-93
2022/03/02 23:23:25;;;;;;;34.88;20.55;;;;;;;;;;6153741;23;20052;-93
2022/03/02 23:26:01;;;;;;;37.15;22.80;;;;;;;;;;6145042;23;20005;-94
2022/03/02 23:28:27;;;;;;;35.22;20.67;;;;;;;;;;6144953;23;20009;-92
2022/03/02 23:31:06;;;;;;;34.78;19.88;;;;;;;;;;6166948;23;20010;-94
2022/03/02 23:33:52;;;;;;;32.05;20.60;;;;;;;;;;6170768;23;20057;-93
2022/03/02 23:36:19;;;;;;;35.47;20.65;;;;;;;;;;6162353;23;20017;-96
